createdAt,value
2023-04-05T00:00:49.187Z,92.34
2023-04-05T00:01:49.172Z,92.11
2023-04-05T00:02:49.505Z,91.77
2023-04-05T00:03:49.477Z,91.44
2023-04-05T00:04:49.396Z,91.33
2023-04-05T00:05:49.353Z,91.39
2023-04-05T00:06:49.438Z,91.45
2023-04-05T00:07:49.387Z,91.60
2023-04-05T00:08:48.588Z,91.85
2023-04-05T00:09:50.103Z,91.92
2023-04-05T00:10:49.282Z,91.77
2023-04-05T00:11:49.267Z,91.68
2023-04-05T00:12:49.260Z,91.70
2023-04-05T00:13:49.910Z,91.77
2023-04-05T00:14:49.217Z,91.60
2023-04-05T00:15:49.244Z,91.46
2023-04-05T00:16:49.266Z,91.42
2023-04-05T00:17:49.219Z,91.46
2023-04-05T00:18:49.196Z,91.51
2023-04-05T00:19:49.152Z,91.68
2023-04-05T00:20:49.872Z,91.77
2023-04-05T00:21:49.148Z,91.77
2023-04-05T00:22:49.125Z,91.73
2023-04-05T00:23:49.112Z,91.62
2023-04-05T00:24:48.384Z,91.59
2023-04-05T00:25:49.106Z,91.72
2023-04-05T00:26:49.246Z,91.73
2023-04-05T00:27:49.067Z,91.74
2023-04-05T00:28:49.054Z,91.73
2023-04-05T00:29:49.055Z,91.82
2023-04-05T00:30:48.618Z,92.07
2023-04-05T00:31:49.802Z,92.23
2023-04-05T00:32:48.302Z,92.33
2023-04-05T00:33:48.998Z,92.40
2023-04-05T00:34:48.940Z,92.29
2023-04-05T00:35:49.014Z,92.19
2023-04-05T00:36:48.956Z,92.19
2023-04-05T00:37:48.922Z,92.09
2023-04-05T00:38:48.924Z,91.98
2023-04-05T00:39:48.930Z,92.18
2023-04-05T00:40:48.391Z,92.27
2023-04-05T00:41:48.945Z,92.35
2023-04-05T00:42:48.886Z,92.46
2023-04-05T00:43:49.583Z,92.54
2023-04-05T00:44:48.420Z,92.68
2023-04-05T00:45:48.873Z,92.73
2023-04-05T00:46:49.485Z,92.70
2023-04-05T00:47:49.500Z,92.81
2023-04-05T00:48:48.060Z,93.03
2023-04-05T00:49:49.476Z,93.26
2023-04-05T00:50:48.089Z,93.41
2023-04-05T00:51:48.862Z,93.46
2023-04-05T00:52:48.736Z,93.50
2023-04-05T00:53:48.760Z,93.71
2023-04-05T00:54:48.690Z,93.93
2023-04-05T00:55:48.708Z,93.98
2023-04-05T00:56:48.005Z,94.03
2023-04-05T00:57:48.692Z,94.03
2023-04-05T00:58:48.735Z,94.01
2023-04-05T00:59:48.624Z,94.07
2023-04-05T01:00:48.490Z,94.19
2023-04-05T01:01:48.633Z,94.33
2023-04-05T01:02:49.335Z,94.51
2023-04-05T01:03:48.620Z,94.72
2023-04-05T01:04:47.974Z,94.87
2023-04-05T01:05:49.249Z,94.99
2023-04-05T01:06:48.592Z,94.96
2023-04-05T01:07:48.555Z,94.93
2023-04-05T01:08:48.528Z,94.82
2023-04-05T01:09:48.529Z,94.65
2023-04-05T01:10:48.482Z,94.53
2023-04-05T01:11:48.724Z,94.51
2023-04-05T01:12:48.493Z,94.47
2023-04-05T01:13:48.464Z,94.46
2023-04-05T01:14:48.451Z,94.43
2023-04-05T01:15:48.456Z,94.47
2023-04-05T01:16:48.420Z,94.58
2023-04-05T01:17:48.429Z,94.75
2023-04-05T01:18:48.416Z,94.88
2023-04-05T01:19:48.435Z,95.01
2023-04-05T01:20:47.637Z,95.17
2023-04-05T01:21:48.382Z,95.30
2023-04-05T01:22:48.339Z,95.38
2023-04-05T01:23:48.331Z,95.54
2023-04-05T01:24:48.335Z,95.74
2023-04-05T01:25:48.286Z,95.85
2023-04-05T01:26:48.971Z,95.88
2023-04-05T01:27:48.283Z,95.84
2023-04-05T01:28:47.537Z,95.84
2023-04-05T01:29:48.249Z,95.88
2023-04-05T01:30:48.269Z,95.95
2023-04-05T01:31:48.228Z,95.98
2023-04-05T01:32:48.255Z,95.97
2023-04-05T01:33:48.198Z,95.93
2023-04-05T01:34:48.194Z,95.93
2023-04-05T01:35:48.177Z,96.08
2023-04-05T01:36:48.160Z,96.21
2023-04-05T01:37:48.150Z,96.28
2023-04-05T01:38:48.142Z,96.26
2023-04-05T01:39:48.823Z,96.21
2023-04-05T01:40:48.096Z,96.17
2023-04-05T01:41:48.378Z,96.28
2023-04-05T01:42:48.095Z,96.42
2023-04-05T01:43:49.001Z,96.56
2023-04-05T01:44:48.133Z,96.58
2023-04-05T01:45:47.586Z,96.54
2023-04-05T01:46:48.102Z,96.49
2023-04-05T01:47:48.052Z,96.46
2023-04-05T01:48:48.692Z,96.46
2023-04-05T01:49:47.999Z,96.38
2023-04-05T01:50:47.966Z,96.40
2023-04-05T01:51:47.971Z,96.44
2023-04-05T01:52:48.635Z,96.44
2023-04-05T01:53:47.945Z,96.41
2023-04-05T01:54:47.971Z,96.47
2023-04-05T01:55:47.895Z,96.63
2023-04-05T01:56:47.800Z,96.73
2023-04-05T01:57:47.923Z,96.78
2023-04-05T01:58:47.928Z,96.80
2023-04-05T01:59:47.660Z,96.88
2023-04-05T02:00:47.872Z,96.99
2023-04-05T02:01:47.843Z,97.04
2023-04-05T02:02:48.590Z,97.10
2023-04-05T02:03:48.039Z,97.20
2023-04-05T02:04:48.071Z,97.19
2023-04-05T02:05:47.687Z,97.20
2023-04-05T02:06:47.677Z,97.18
2023-04-05T02:07:47.791Z,97.11
2023-04-05T02:08:47.680Z,97.08
2023-04-05T02:09:47.753Z,97.10
2023-04-05T02:10:47.056Z,97.21
2023-04-05T02:11:47.713Z,97.32
2023-04-05T02:12:47.706Z,97.41
2023-04-05T02:13:48.685Z,97.47
2023-04-05T02:14:48.395Z,97.45
2023-04-05T02:15:48.406Z,97.44
2023-04-05T02:16:47.726Z,97.46
2023-04-05T02:17:47.679Z,97.55
2023-04-05T02:18:47.321Z,97.62
2023-04-05T02:19:47.641Z,97.67
2023-04-05T02:20:47.649Z,97.66
2023-04-05T02:21:47.584Z,97.67
2023-04-05T02:22:47.590Z,97.72
2023-04-05T02:23:48.232Z,97.70
2023-04-05T02:24:47.545Z,97.63
2023-04-05T02:25:48.252Z,97.61
2023-04-05T02:26:47.556Z,97.64
2023-04-05T02:27:47.532Z,97.69
2023-04-05T02:28:47.495Z,97.69
2023-04-05T02:29:47.279Z,97.70
2023-04-05T02:30:47.463Z,97.69
2023-04-05T02:31:47.349Z,97.73
2023-04-05T02:32:47.447Z,97.75
2023-04-05T02:33:47.454Z,97.78
2023-04-05T02:34:47.426Z,97.78
2023-04-05T02:35:47.432Z,97.75
2023-04-05T02:36:47.420Z,97.66
2023-04-05T02:37:47.429Z,97.66
2023-04-05T02:38:47.374Z,97.70
2023-04-05T02:39:47.373Z,97.83
2023-04-05T02:40:47.363Z,97.94
2023-04-05T02:41:47.337Z,97.98
2023-04-05T02:42:47.332Z,98.01
2023-04-05T02:43:47.313Z,98.04
2023-04-05T02:44:47.976Z,98.11
2023-04-05T02:45:48.038Z,98.14
2023-04-05T02:46:47.262Z,98.14
2023-04-05T02:47:47.304Z,98.11
2023-04-05T02:48:47.230Z,98.13
2023-04-05T02:49:47.226Z,98.11
2023-04-05T02:50:46.586Z,98.12
2023-04-05T02:51:47.175Z,98.07
2023-04-05T02:52:47.463Z,98.06
2023-04-05T02:53:46.585Z,98.12
2023-04-05T02:54:46.733Z,98.16
2023-04-05T02:55:46.602Z,98.16
2023-04-05T02:56:46.798Z,98.23
2023-04-05T02:57:47.812Z,98.31
2023-04-05T02:58:47.119Z,98.37
2023-04-05T02:59:47.108Z,98.39
2023-04-05T03:00:47.082Z,98.42
2023-04-05T03:01:47.061Z,98.43
2023-04-05T03:02:47.079Z,98.45
2023-04-05T03:03:46.745Z,98.47
2023-04-05T03:04:47.031Z,98.50
2023-04-05T03:05:47.030Z,98.54
2023-04-05T03:06:46.980Z,98.59
2023-04-05T03:07:46.995Z,98.66
2023-04-05T03:08:46.910Z,98.69
2023-04-05T03:09:47.210Z,98.67
2023-04-05T03:10:46.239Z,98.69
2023-04-05T03:11:46.942Z,98.65
2023-04-05T03:12:46.954Z,98.61
2023-04-05T03:13:46.910Z,98.59
2023-04-05T03:14:46.187Z,98.59
2023-04-05T03:15:46.879Z,98.56
2023-04-05T03:16:46.958Z,98.47
2023-04-05T03:17:46.898Z,98.37
2023-04-05T03:18:46.194Z,98.27
2023-04-05T03:19:46.836Z,98.19
2023-04-05T03:20:46.870Z,98.15
2023-04-05T03:21:46.785Z,98.12
2023-04-05T03:22:46.836Z,98.10
2023-04-05T03:23:46.804Z,98.15
2023-04-05T03:24:46.776Z,98.17
2023-04-05T03:25:46.764Z,98.20
2023-04-05T03:26:46.740Z,98.22
2023-04-05T03:27:46.737Z,98.27
2023-04-05T03:28:46.724Z,98.28
2023-04-05T03:29:46.717Z,98.28
2023-04-05T03:30:46.699Z,98.32
2023-04-05T03:31:47.381Z,98.32
2023-04-05T03:32:46.681Z,98.36
2023-04-05T03:33:46.653Z,98.38
2023-04-05T03:34:46.210Z,98.36
2023-04-05T03:35:47.317Z,98.35
2023-04-05T03:36:46.639Z,98.30
2023-04-05T03:37:47.289Z,98.22
2023-04-05T03:38:46.633Z,98.18
2023-04-05T03:39:46.603Z,98.13
2023-04-05T03:40:46.572Z,98.08
2023-04-05T03:41:46.528Z,98.07
2023-04-05T03:42:46.219Z,98.07
2023-04-05T03:43:46.522Z,98.08
2023-04-05T03:44:46.511Z,98.12
2023-04-05T03:45:46.552Z,98.17
2023-04-05T03:46:46.465Z,98.17
2023-04-05T03:47:46.488Z,98.18
2023-04-05T03:48:46.469Z,98.17
2023-04-05T03:49:46.442Z,98.15
2023-04-05T03:50:46.431Z,98.09
2023-04-05T03:51:46.409Z,98.06
2023-04-05T03:52:46.417Z,98.05
2023-04-05T03:53:46.392Z,98.07
2023-04-05T03:54:47.118Z,98.16
2023-04-05T03:55:46.377Z,98.24
2023-04-05T03:56:47.047Z,98.33
2023-04-05T03:57:46.341Z,98.36
2023-04-05T03:58:46.499Z,98.41
2023-04-05T03:59:46.314Z,98.42
2023-04-05T04:00:46.298Z,98.41
2023-04-05T04:01:46.280Z,98.34
2023-04-05T04:02:47.003Z,98.24
2023-04-05T04:03:46.310Z,98.16
2023-04-05T04:04:46.284Z,98.14
2023-04-05T04:05:46.393Z,98.16
2023-04-05T04:06:46.921Z,98.17
2023-04-05T04:07:46.280Z,98.17
2023-04-05T04:08:46.501Z,98.17
2023-04-05T04:09:46.188Z,98.14
2023-04-05T04:10:46.177Z,98.13
2023-04-05T04:11:46.155Z,98.07
2023-04-05T04:12:46.173Z,97.96
2023-04-05T04:13:45.476Z,97.93
2023-04-05T04:14:46.140Z,97.92
2023-04-05T04:15:46.114Z,97.93
2023-04-05T04:16:46.363Z,97.93
2023-04-05T04:17:46.129Z,97.96
2023-04-05T04:18:46.179Z,98.03
2023-04-05T04:19:46.056Z,98.11
2023-04-05T04:20:46.058Z,98.19
2023-04-05T04:21:46.009Z,98.29
2023-04-05T04:22:46.166Z,98.39
2023-04-05T04:23:46.078Z,98.47
2023-04-05T04:24:45.775Z,98.60
2023-04-05T04:25:46.659Z,98.72
2023-04-05T04:26:46.061Z,98.86
2023-04-05T04:27:45.946Z,98.92
2023-04-05T04:28:45.937Z,98.95
2023-04-05T04:29:45.943Z,98.97
2023-04-05T04:30:45.787Z,99.00
2023-04-05T04:31:45.256Z,99.02
2023-04-05T04:32:45.910Z,99.14
2023-04-05T04:33:45.921Z,99.16
2023-04-05T04:34:45.858Z,99.20
2023-04-05T04:35:45.902Z,99.33
2023-04-05T04:36:45.836Z,99.42
2023-04-05T04:37:45.798Z,99.51
2023-04-05T04:38:45.799Z,99.57
2023-04-05T04:39:45.131Z,99.63
2023-04-05T04:40:45.717Z,99.71
2023-04-05T04:41:45.785Z,99.78
2023-04-05T04:42:46.505Z,99.87
2023-04-05T04:43:45.987Z,99.95
2023-04-05T04:44:45.750Z,100.00
2023-04-05T04:45:45.793Z,100.00
2023-04-05T04:46:45.711Z,100.00
2023-04-05T04:47:45.708Z,100.00
2023-04-05T04:48:45.676Z,100.00
2023-04-05T04:49:45.676Z,100.00
2023-04-05T04:50:45.676Z,100.00
2023-04-05T04:51:45.696Z,100.00
2023-04-05T04:52:45.608Z,100.00
2023-04-05T04:53:47.145Z,100.00
2023-04-05T04:54:45.606Z,99.96
2023-04-05T04:55:45.601Z,99.99
2023-04-05T04:56:45.632Z,100.00
2023-04-05T04:57:45.832Z,100.00
2023-04-05T04:58:45.557Z,100.00
2023-04-05T04:59:45.555Z,100.00
2023-04-05T05:00:45.639Z,100.00
2023-04-05T05:01:45.524Z,100.00
2023-04-05T05:02:45.522Z,100.00
2023-04-05T05:03:45.504Z,100.00
2023-04-05T05:04:45.484Z,100.00
2023-04-05T05:05:45.475Z,100.00
2023-04-05T05:06:45.464Z,100.00
2023-04-05T05:07:45.430Z,100.00
2023-04-05T05:08:45.439Z,100.00
2023-04-05T05:09:45.426Z,100.00
2023-04-05T05:10:45.413Z,100.00
2023-04-05T05:11:45.395Z,100.00
2023-04-05T05:12:45.350Z,100.00
2023-04-05T05:13:48.590Z,100.00
2023-04-05T05:14:46.398Z,100.00
2023-04-05T05:15:46.011Z,100.00
2023-04-05T05:16:45.352Z,100.00
2023-04-05T05:17:45.346Z,100.00
2023-04-05T05:18:45.303Z,100.00
2023-04-05T05:19:45.309Z,100.00
2023-04-05T05:20:45.284Z,100.00
2023-04-05T05:21:45.264Z,100.00
2023-04-05T05:22:45.274Z,100.00
2023-04-05T05:23:45.249Z,99.89
2023-04-05T05:24:45.906Z,99.82
2023-04-05T05:25:45.228Z,99.81
2023-04-05T05:26:45.897Z,99.81
2023-04-05T05:27:45.214Z,99.85
2023-04-05T05:28:45.244Z,99.86
2023-04-05T05:29:45.161Z,99.85
2023-04-05T05:30:45.258Z,99.82
2023-04-05T05:31:45.166Z,99.78
2023-04-05T05:32:45.848Z,99.75
2023-04-05T05:33:45.114Z,99.66
2023-04-05T05:34:45.791Z,99.64
2023-04-05T05:35:45.123Z,99.61
2023-04-05T05:36:45.086Z,99.62
2023-04-05T05:37:45.039Z,99.67
2023-04-05T05:38:45.049Z,99.71
2023-04-05T05:39:45.046Z,99.77
2023-04-05T05:40:45.020Z,99.78
2023-04-05T05:41:45.052Z,99.80
2023-04-05T05:42:44.987Z,99.82
2023-04-05T05:43:44.984Z,99.87
2023-04-05T05:44:45.643Z,99.93
2023-04-05T05:45:44.967Z,99.96
2023-04-05T05:46:45.086Z,100.00
2023-04-05T05:47:45.016Z,100.00
2023-04-05T05:48:44.922Z,100.00
2023-04-05T05:49:45.610Z,100.00
2023-04-05T05:50:44.890Z,100.00
2023-04-05T05:51:45.560Z,100.00
2023-04-05T05:52:44.840Z,99.96
2023-04-05T05:53:44.872Z,99.87
2023-04-05T05:54:44.849Z,99.80
2023-04-05T05:55:44.875Z,99.70
2023-04-05T05:56:44.830Z,99.59
2023-04-05T05:57:44.852Z,99.45
2023-04-05T05:58:44.792Z,99.33
2023-04-05T05:59:44.790Z,99.19
2023-04-05T06:00:44.768Z,98.98
2023-04-05T06:01:44.753Z,98.84
2023-04-05T06:02:44.831Z,98.58
2023-04-05T06:03:44.857Z,98.26
2023-04-05T06:04:44.738Z,97.83
2023-04-05T06:05:44.723Z,97.50
2023-04-05T06:06:44.685Z,97.22
2023-04-05T06:07:44.221Z,96.93
2023-04-05T06:08:44.685Z,96.71
2023-04-05T06:09:44.655Z,96.53
2023-04-05T06:10:44.635Z,96.37
2023-04-05T06:11:55.617Z,96.25
2023-04-05T06:12:45.584Z,96.18
2023-04-05T06:13:44.615Z,96.10
2023-04-05T06:14:44.596Z,96.01
2023-04-05T06:15:44.586Z,95.93
2023-04-05T06:16:44.723Z,95.85
2023-04-05T06:17:44.579Z,95.75
2023-04-05T06:18:44.583Z,95.65
2023-04-05T06:19:45.208Z,95.47
2023-04-05T06:20:45.209Z,95.36
2023-04-05T06:21:44.494Z,95.27
2023-04-05T06:22:44.480Z,95.28
2023-04-05T06:23:44.462Z,95.28
2023-04-05T06:24:44.453Z,95.27
2023-04-05T06:25:44.463Z,95.22
2023-04-05T06:26:44.456Z,95.20
2023-04-05T06:27:45.105Z,95.11
2023-04-05T06:28:44.418Z,95.08
2023-04-05T06:29:45.062Z,95.09
2023-04-05T06:30:44.371Z,95.09
2023-04-05T06:31:44.444Z,95.05
2023-04-05T06:32:44.383Z,94.99
2023-04-05T06:33:44.343Z,94.89
2023-04-05T06:34:44.348Z,94.69
2023-04-05T06:35:44.334Z,94.47
2023-04-05T06:36:44.306Z,94.33
2023-04-05T06:37:44.285Z,94.27
2023-04-05T06:38:44.947Z,94.20
2023-04-05T06:39:44.936Z,94.10
2023-04-05T06:40:44.429Z,94.02
2023-04-05T06:41:45.081Z,93.95
2023-04-05T06:42:44.199Z,93.91
2023-04-05T06:43:44.206Z,93.86
2023-04-05T06:44:44.195Z,93.93
2023-04-05T06:45:44.272Z,94.02
2023-04-05T06:46:44.172Z,94.01
2023-04-05T06:47:44.149Z,93.88
2023-04-05T06:48:44.151Z,93.62
2023-04-05T06:49:43.894Z,93.34
2023-04-05T06:50:43.935Z,93.08
2023-04-05T06:51:44.113Z,92.95
2023-04-05T06:52:43.895Z,92.90
2023-04-05T06:53:44.743Z,92.80
2023-04-05T06:54:43.913Z,92.67
2023-04-05T06:55:44.058Z,92.69
2023-04-05T06:56:44.033Z,92.54
2023-04-05T06:57:44.026Z,92.41
2023-04-05T06:58:43.979Z,92.34
2023-04-05T06:59:44.979Z,92.21
2023-04-05T07:00:43.978Z,91.98
2023-04-05T07:01:44.034Z,91.79
2023-04-05T07:02:43.991Z,91.65
2023-04-05T07:03:44.221Z,91.49
2023-04-05T07:04:43.950Z,91.28
2023-04-05T07:05:44.930Z,90.86
2023-04-05T07:06:44.635Z,90.39
2023-04-05T07:07:44.612Z,90.13
2023-04-05T07:08:43.851Z,89.52
2023-04-05T07:09:43.879Z,88.85
2023-04-05T07:10:43.849Z,88.55
2023-04-05T07:11:43.842Z,88.03
2023-04-05T07:12:43.842Z,86.82
2023-04-05T07:13:43.796Z,83.80
2023-04-05T07:14:44.022Z,80.34
2023-04-05T07:15:43.966Z,77.36
2023-04-05T07:16:43.770Z,74.69
2023-04-05T07:17:43.774Z,72.08
2023-04-05T07:18:43.730Z,70.63
2023-04-05T07:19:43.731Z,69.08
2023-04-05T07:20:43.583Z,68.11
2023-04-05T07:21:43.720Z,68.34
2023-04-05T07:22:44.362Z,67.65
2023-04-05T07:23:43.661Z,65.91
2023-04-05T07:24:43.688Z,64.24
2023-04-05T07:25:43.648Z,62.27
2023-04-05T07:26:43.643Z,61.07
2023-04-05T07:27:43.630Z,60.76
2023-04-05T07:28:43.593Z,60.81
2023-04-05T07:29:43.955Z,59.77
2023-04-05T07:30:43.990Z,59.63
2023-04-05T07:31:43.629Z,59.18
2023-04-05T07:32:43.631Z,58.29
2023-04-05T07:33:43.526Z,57.35
2023-04-05T07:34:43.563Z,56.81
2023-04-05T07:35:43.580Z,57.28
2023-04-05T07:36:44.232Z,56.97
2023-04-05T07:37:43.514Z,56.23
2023-04-05T07:38:43.448Z,54.88
2023-04-05T07:39:43.467Z,54.39
2023-04-05T07:40:43.502Z,54.22
2023-04-05T07:41:43.654Z,54.46
2023-04-05T07:42:43.419Z,54.56
2023-04-05T07:43:43.378Z,53.52
2023-04-05T07:44:43.394Z,51.64
2023-04-05T07:45:43.384Z,50.92
2023-04-05T07:46:43.397Z,50.27
2023-04-05T07:47:43.389Z,50.51
2023-04-05T07:48:43.334Z,50.67
2023-04-05T07:49:43.325Z,49.79
2023-04-05T07:50:43.416Z,50.84
2023-04-05T07:51:43.314Z,50.56
2023-04-05T07:52:44.012Z,50.30
2023-04-05T07:53:43.264Z,49.27
2023-04-05T07:54:43.260Z,49.81
2023-04-05T07:55:43.294Z,48.63
2023-04-05T07:56:43.253Z,48.48
2023-04-05T07:57:43.913Z,48.62
2023-04-05T07:58:43.219Z,48.84
2023-04-05T07:59:43.215Z,48.96
2023-04-05T08:00:42.820Z,49.37
2023-04-05T08:01:43.175Z,48.02
2023-04-05T08:02:43.257Z,46.49
2023-04-05T08:03:43.922Z,46.19
2023-04-05T08:04:43.178Z,45.72
2023-04-05T08:05:42.420Z,44.68
2023-04-05T08:06:42.446Z,45.09
2023-04-05T08:07:43.126Z,46.06
2023-04-05T08:08:42.471Z,46.89
2023-04-05T08:09:43.055Z,47.52
2023-04-05T08:10:43.293Z,47.42
2023-04-05T08:11:43.038Z,47.18
2023-04-05T08:12:43.027Z,47.49
2023-04-05T08:13:42.452Z,46.12
2023-04-05T08:14:42.429Z,44.76
2023-04-05T08:15:43.667Z,45.02
2023-04-05T08:16:43.012Z,44.95
2023-04-05T08:17:43.005Z,45.54
2023-04-05T08:18:42.925Z,44.64
2023-04-05T08:19:42.921Z,44.43
2023-04-05T08:20:43.083Z,45.03
2023-04-05T08:21:42.900Z,45.46
2023-04-05T08:22:42.903Z,45.28
2023-04-05T08:23:43.545Z,47.22
2023-04-05T08:24:42.898Z,46.85
2023-04-05T08:25:43.526Z,45.61
2023-04-05T08:26:42.850Z,45.35
2023-04-05T08:27:42.869Z,45.19
2023-04-05T08:28:42.801Z,45.11
2023-04-05T08:29:42.797Z,44.71
2023-04-05T08:30:42.774Z,44.99
2023-04-05T08:31:42.796Z,44.22
2023-04-05T08:32:42.752Z,43.80
2023-04-05T08:33:42.717Z,42.89
2023-04-05T08:34:42.731Z,43.29
2023-04-05T08:35:42.738Z,42.60
2023-04-05T08:36:42.708Z,42.19
2023-04-05T08:37:43.380Z,42.30
2023-04-05T08:38:41.991Z,43.55
2023-04-05T08:39:42.663Z,42.61
2023-04-05T08:40:42.948Z,42.88
2023-04-05T08:41:42.084Z,41.80
2023-04-05T08:42:42.644Z,42.16
2023-04-05T08:43:43.262Z,41.06
2023-04-05T08:44:42.613Z,41.97
2023-04-05T08:45:42.578Z,41.29
2023-04-05T08:46:42.566Z,40.74
2023-04-05T08:47:42.603Z,41.28
2023-04-05T08:48:43.195Z,41.19
2023-04-05T08:49:42.570Z,42.44
2023-04-05T08:50:43.235Z,43.41
2023-04-05T08:51:42.512Z,42.52
2023-04-05T08:52:42.466Z,42.18
2023-04-05T08:53:42.445Z,41.16
2023-04-05T08:54:42.467Z,40.65
2023-04-05T08:55:42.455Z,39.98
2023-04-05T08:56:42.433Z,40.25
2023-04-05T08:57:42.425Z,39.76
2023-04-05T08:58:42.394Z,39.62
2023-04-05T08:59:42.428Z,40.03
2023-04-05T09:00:42.526Z,39.98
2023-04-05T09:01:42.453Z,40.01
2023-04-05T09:02:41.700Z,40.13
2023-04-05T09:03:42.391Z,39.13
2023-04-05T09:04:42.321Z,38.88
2023-04-05T09:05:42.323Z,39.38
2023-04-05T09:06:42.046Z,39.04
2023-04-05T09:07:42.319Z,38.79
2023-04-05T09:08:42.140Z,38.73
2023-04-05T09:09:43.253Z,38.78
2023-04-05T09:10:42.098Z,38.77
2023-04-05T09:11:42.222Z,39.88
2023-04-05T09:12:42.242Z,39.32
2023-04-05T09:13:42.182Z,39.02
2023-04-05T09:14:42.886Z,38.68
2023-04-05T09:15:42.615Z,37.82
2023-04-05T09:16:42.359Z,37.72
2023-04-05T09:17:42.058Z,37.28
2023-04-05T09:18:43.060Z,36.95
2023-04-05T09:19:42.340Z,37.12
2023-04-05T09:20:42.287Z,37.04
2023-04-05T09:21:42.073Z,37.12
2023-04-05T09:22:42.050Z,36.83
2023-04-05T09:23:42.067Z,36.23
2023-04-05T09:24:42.814Z,36.89
2023-04-05T09:25:42.042Z,36.79
2023-04-05T09:26:42.059Z,37.32
2023-04-05T09:27:42.711Z,37.69
2023-04-05T09:28:42.715Z,38.35
2023-04-05T09:29:42.727Z,38.24
2023-04-05T09:30:42.186Z,37.67
2023-04-05T09:31:41.970Z,37.34
2023-04-05T09:32:41.981Z,37.85
2023-04-05T09:33:43.287Z,36.15
2023-04-05T09:34:41.900Z,35.37
2023-04-05T09:35:42.131Z,35.30
2023-04-05T09:36:41.876Z,36.12
2023-04-05T09:37:41.865Z,35.60
2023-04-05T09:38:41.868Z,35.89
2023-04-05T09:39:41.817Z,35.60
2023-04-05T09:40:42.573Z,35.39
2023-04-05T09:41:41.839Z,36.99
2023-04-05T09:42:41.059Z,37.64
2023-04-05T09:43:42.501Z,37.93
2023-04-05T09:44:41.754Z,37.50
2023-04-05T09:45:41.782Z,36.62
2023-04-05T09:46:42.565Z,36.59
2023-04-05T09:47:41.838Z,38.13
2023-04-05T09:48:41.726Z,36.26
2023-04-05T09:49:41.724Z,36.03
2023-04-05T09:50:41.307Z,36.18
2023-04-05T09:51:41.692Z,35.96
2023-04-05T09:52:41.091Z,36.29
2023-04-05T09:53:41.655Z,35.27
2023-04-05T09:54:41.640Z,35.33
2023-04-05T09:55:42.739Z,34.25
2023-04-05T09:56:41.633Z,34.47
2023-04-05T09:57:41.621Z,34.17
2023-04-05T09:58:40.835Z,35.30
2023-04-05T09:59:41.542Z,34.92
2023-04-05T10:00:41.712Z,35.01
2023-04-05T10:01:41.817Z,35.79
2023-04-05T10:02:42.446Z,35.47
2023-04-05T10:03:41.664Z,35.02
2023-04-05T10:04:41.488Z,35.73
2023-04-05T10:05:41.490Z,36.62
2023-04-05T10:06:41.194Z,36.18
2023-04-05T10:07:41.452Z,36.05
2023-04-05T10:08:41.449Z,35.94
2023-04-05T10:09:41.432Z,36.35
2023-04-05T10:10:41.522Z,36.40
2023-04-05T10:11:41.408Z,36.01
2023-04-05T10:12:41.458Z,35.51
2023-04-05T10:13:41.406Z,35.46
2023-04-05T10:14:41.075Z,36.05
2023-04-05T10:15:41.349Z,34.57
2023-04-05T10:16:41.413Z,35.02
2023-04-05T10:17:42.027Z,35.13
2023-04-05T10:18:41.318Z,35.25
2023-04-05T10:19:41.296Z,35.26
2023-04-05T10:20:42.442Z,34.83
2023-04-05T10:21:41.280Z,34.23
2023-04-05T10:22:40.559Z,34.30
2023-04-05T10:23:41.255Z,34.24
2023-04-05T10:24:41.205Z,33.11
2023-04-05T10:25:41.223Z,33.58
2023-04-05T10:26:41.206Z,32.84
2023-04-05T10:27:41.197Z,32.09
2023-04-05T10:28:41.204Z,32.31
2023-04-05T10:29:41.161Z,32.96
2023-04-05T10:30:40.730Z,33.91
2023-04-05T10:31:41.239Z,35.57
2023-04-05T10:32:41.187Z,35.54
2023-04-05T10:33:42.468Z,34.73
2023-04-05T10:34:41.174Z,35.25
2023-04-05T10:35:41.102Z,36.52
2023-04-05T10:36:41.080Z,34.77
2023-04-05T10:37:41.100Z,34.43
2023-04-05T10:38:40.560Z,33.63
2023-04-05T10:39:41.708Z,33.86
2023-04-05T10:40:41.276Z,34.66
2023-04-05T10:41:41.036Z,33.61
2023-04-05T10:42:41.038Z,33.89
2023-04-05T10:43:41.068Z,33.92
2023-04-05T10:44:41.726Z,34.38
2023-04-05T10:45:41.232Z,34.81
2023-04-05T10:46:41.036Z,33.67
2023-04-05T10:47:40.998Z,32.83
2023-04-05T10:48:40.912Z,32.23
2023-04-05T10:49:41.576Z,32.11
2023-04-05T10:50:41.055Z,32.65
2023-04-05T10:51:40.872Z,31.73
2023-04-05T10:52:40.902Z,32.58
2023-04-05T10:53:41.582Z,32.90
2023-04-05T10:54:40.840Z,33.22
2023-04-05T10:55:40.854Z,33.54
2023-04-05T10:56:40.819Z,34.91
2023-04-05T10:57:40.151Z,35.10
2023-04-05T10:58:40.801Z,36.77
2023-04-05T10:59:40.923Z,34.11
2023-04-05T11:00:40.934Z,32.13
2023-04-05T11:01:40.819Z,32.13
2023-04-05T11:02:40.823Z,33.43
2023-04-05T11:03:40.749Z,33.20
2023-04-05T11:04:41.932Z,33.01
2023-04-05T11:05:40.732Z,33.60
2023-04-05T11:06:40.686Z,32.11
2023-04-05T11:07:40.669Z,32.48
2023-04-05T11:08:40.657Z,33.39
2023-04-05T11:09:40.652Z,32.67
2023-04-05T11:10:40.820Z,32.00
2023-04-05T11:11:41.291Z,33.14
2023-04-05T11:12:40.619Z,31.45
2023-04-05T11:13:40.620Z,32.22
2023-04-05T11:14:40.588Z,32.80
2023-04-05T11:15:40.559Z,32.01
2023-04-05T11:16:40.620Z,31.40
2023-04-05T11:17:40.561Z,30.66
2023-04-05T11:18:40.591Z,30.57
2023-04-05T11:19:41.631Z,30.43
2023-04-05T11:20:40.782Z,30.16
2023-04-05T11:21:40.497Z,30.63
2023-04-05T11:22:40.488Z,30.12
2023-04-05T11:23:40.468Z,30.82
2023-04-05T11:24:40.506Z,30.93
2023-04-05T11:25:40.414Z,31.77
2023-04-05T11:26:40.481Z,31.40
2023-04-05T11:27:40.416Z,31.66
2023-04-05T11:28:41.172Z,30.46
2023-04-05T11:29:40.395Z,31.56
2023-04-05T11:30:40.566Z,32.07
2023-04-05T11:31:40.398Z,33.23
2023-04-05T11:32:40.159Z,30.97
2023-04-05T11:33:39.881Z,29.88
2023-04-05T11:34:40.327Z,30.41
2023-04-05T11:35:40.169Z,33.22
2023-04-05T11:36:40.306Z,32.67
2023-04-05T11:37:40.292Z,30.53
2023-04-05T11:38:40.264Z,31.03
2023-04-05T11:39:40.263Z,29.90
2023-04-05T11:40:40.355Z,29.70
2023-04-05T11:41:40.190Z,29.08
2023-04-05T11:42:40.229Z,29.73
2023-04-05T11:43:40.146Z,29.05
2023-04-05T11:44:40.208Z,29.49
2023-04-05T11:45:40.174Z,29.81
2023-04-05T11:46:40.209Z,29.47
2023-04-05T11:47:41.219Z,28.85
2023-04-05T11:48:40.157Z,30.42
2023-04-05T11:49:40.206Z,30.73
2023-04-05T11:50:40.951Z,29.81
2023-04-05T11:51:40.142Z,30.94
2023-04-05T11:52:40.829Z,29.55
2023-04-05T11:53:40.821Z,28.60
2023-04-05T11:54:40.089Z,29.20
2023-04-05T11:55:40.194Z,30.89
2023-04-05T11:56:40.042Z,31.97
2023-04-05T11:57:40.043Z,30.91
2023-04-05T11:58:40.091Z,31.45
2023-04-05T11:59:40.005Z,31.92
2023-04-05T12:00:40.305Z,32.45
2023-04-05T12:01:39.950Z,32.22
2023-04-05T12:02:40.068Z,31.93
2023-04-05T12:03:40.080Z,31.08
2023-04-05T12:04:39.957Z,30.64
2023-04-05T12:05:40.154Z,30.90
2023-04-05T12:06:39.875Z,32.83
2023-04-05T12:07:39.914Z,31.51
2023-04-05T12:08:39.893Z,31.43
2023-04-05T12:09:39.880Z,31.40
2023-04-05T12:10:39.849Z,31.75
2023-04-05T12:11:40.089Z,31.60
2023-04-05T12:12:39.855Z,31.65
2023-04-05T12:13:39.180Z,30.68
2023-04-05T12:14:39.815Z,31.17
2023-04-05T12:15:40.161Z,31.06
2023-04-05T12:16:39.792Z,30.92
2023-04-05T12:17:40.477Z,31.82
2023-04-05T12:18:40.427Z,31.61
2023-04-05T12:19:39.735Z,32.06
2023-04-05T12:20:39.179Z,32.63
2023-04-05T12:21:39.052Z,32.28
2023-04-05T12:22:39.706Z,31.87
2023-04-05T12:23:39.679Z,30.81
2023-04-05T12:24:40.337Z,31.16
2023-04-05T12:25:39.787Z,31.25
2023-04-05T12:26:40.048Z,32.27
2023-04-05T12:27:39.864Z,31.05
2023-04-05T12:28:39.618Z,30.10
2023-04-05T12:29:39.605Z,29.51
2023-04-05T12:30:39.581Z,30.03
2023-04-05T12:31:39.677Z,29.85
2023-04-05T12:32:39.612Z,30.48
2023-04-05T12:33:39.560Z,31.17
2023-04-05T12:34:39.534Z,31.27
2023-04-05T12:35:39.689Z,30.59
2023-04-05T12:36:38.944Z,29.33
2023-04-05T12:37:39.498Z,28.75
2023-04-05T12:38:39.489Z,30.60
2023-04-05T12:39:39.465Z,28.71
2023-04-05T12:40:39.450Z,29.19
2023-04-05T12:41:39.434Z,29.78
2023-04-05T12:42:39.446Z,29.66
2023-04-05T12:43:39.725Z,30.58
2023-04-05T12:44:38.663Z,30.86
2023-04-05T12:45:38.758Z,32.20
2023-04-05T12:46:39.348Z,32.25
2023-04-05T12:47:39.401Z,31.67
2023-04-05T12:48:39.351Z,32.75
2023-04-05T12:49:39.388Z,31.29
2023-04-05T12:50:39.327Z,32.11
2023-04-05T12:51:39.351Z,31.97